Time;durP1;ratioP1;P1;durP2;ratioP2;P2;SDS_P1;SDS_P2;PMS_P1;PMS_P2;Temp;Humidity;BMP_temperature;BMP_pressure;BME280_temperature;BME280_humidity;BME280_pressure;Samples;Min_cycle;Max_cycle;Signal;HPM_P1;HPM_P2
2021/06/20 00:00:56;;;;;;;10.07;7.60;;;;;;;16.64;74.80;101060.00;5073081;28;20040;-89
2021/06/20 00:03:22;;;;;;;16.20;8.20;;;;;;;16.62;74.74;101063.06;5075346;28;20046;-87
2021/06/20 00:06:00;;;;;;;12.27;7.65;;;;;;;16.60;74.78;101047.97;5074598;28;20487;-89
2021/06/20 00:08:26;;;;;;;16.27;8.13;;;;;;;16.60;74.84;101020.47;5070152;28;20032;-86
2021/06/20 00:10:51;;;;;;;10.40;8.07;;;;;;;16.62;74.87;101038.28;5073846;28;20035;-85
2021/06/20 00:13:17;;;;;;;13.18;7.90;;;;;;;16.62;74.76;101031.97;5074339;28;20384;-86
2021/06/20 00:15:43;;;;;;;12.52;7.45;;;;;;;16.58;74.92;101023.50;5075757;28;20024;-86
2021/06/20 00:18:08;;;;;;;14.13;7.93;;;;;;;16.58;74.95;101018.00;5067103;28;20024;-84
2021/06/20 00:20:43;;;;;;;14.02;8.30;;;;;;;16.56;75.17;101017.53;5071066;28;20123;-87
2021/06/20 00:23:08;;;;;;;13.23;8.07;;;;;;;16.56;74.98;101008.41;5053561;28;20036;-87
2021/06/20 00:25:34;;;;;;;13.48;7.80;;;;;;;16.55;75.12;101006.81;5073499;28;20020;-87
2021/06/20 00:27:59;;;;;;;11.82;8.35;;;;;;;16.54;75.24;100988.66;5072106;28;20054;-89
2021/06/20 00:30:28;;;;;;;13.60;8.45;;;;;;;16.54;75.24;100985.91;5069590;28;20027;-86
2021/06/20 00:32:53;;;;;;;12.75;8.93;;;;;;;16.55;75.33;100984.78;5074232;28;20024;-87
2021/06/20 00:35:19;;;;;;;17.65;8.68;;;;;;;16.56;75.36;100991.91;5070698;28;20658;-86
2021/06/20 00:37:44;;;;;;;15.68;8.90;;;;;;;16.56;75.35;100997.41;5074776;28;20413;-88
2021/06/20 00:40:10;;;;;;;15.20;8.57;;;;;;;16.58;75.42;101015.25;5070307;28;20458;-86
2021/06/20 00:42:35;;;;;;;15.15;9.35;;;;;;;16.57;75.36;101007.31;5074399;28;20025;-88
2021/06/20 00:45:01;;;;;;;14.48;9.27;;;;;;;16.56;75.67;101003.75;5053182;28;20020;-87
2021/06/20 00:47:26;;;;;;;16.02;10.63;;;;;;;16.55;75.68;101001.31;5072229;28;20469;-88
2021/06/20 00:49:52;;;;;;;17.63;9.40;;;;;;;16.52;75.75;100996.41;5072007;28;20088;-87
2021/06/20 00:52:18;;;;;;;13.65;9.05;;;;;;;16.50;75.83;100991.22;5068766;28;20104;-88
2021/06/20 00:54:49;;;;;;;12.50;8.05;;;;;;;16.50;75.66;100998.66;5068062;28;20424;-88
2021/06/20 00:57:15;;;;;;;16.40;7.57;;;;;;;16.47;75.72;100999.28;5071186;28;20091;-87
2021/06/20 00:59:42;;;;;;;11.85;6.72;;;;;;;16.46;75.63;101003.97;5068706;28;20505;-88
2021/06/20 01:02:07;;;;;;;13.07;6.82;;;;;;;16.45;75.60;101013.34;5073788;28;20055;-87
2021/06/20 01:04:33;;;;;;;11.10;7.40;;;;;;;16.45;75.70;101015.28;5072639;28;20024;-87
2021/06/20 01:06:58;;;;;;;8.85;7.70;;;;;;;16.45;75.72;101018.03;5072886;28;20035;-88
2021/06/20 01:09:24;;;;;;;10.85;7.63;;;;;;;16.45;75.54;101013.34;5069665;28;20021;-87
2021/06/20 01:11:49;;;;;;;13.98;7.88;;;;;;;16.43;75.46;101016.41;5072473;28;20024;-88
2021/06/20 01:14:14;;;;;;;10.32;6.30;;;;;;;16.43;75.67;101021.91;5070742;28;20017;-88
2021/06/20 01:16:40;;;;;;;15.52;6.32;;;;;;;16.43;75.62;101027.41;5051835;28;20537;-87
2021/06/20 01:19:07;;;;;;;12.65;6.05;;;;;;;16.41;75.62;101029.66;5054503;28;20082;-88
2021/06/20 01:21:32;;;;;;;14.15;6.97;;;;;;;16.37;75.70;101028.66;5053881;28;20024;-87
2021/06/20 01:23:57;;;;;;;11.93;6.53;;;;;;;16.34;75.69;101026.50;5071290;28;20023;-88
2021/06/20 01:26:23;;;;;;;11.82;6.75;;;;;;;16.35;75.77;101036.38;5073027;28;20028;-87
2021/06/20 01:29:01;;;;;;;15.77;7.63;;;;;;;16.36;75.75;101034.44;5071665;28;20020;-88
2021/06/20 01:31:31;;;;;;;13.68;8.15;;;;;;;16.35;75.75;101033.63;5072658;28;20036;-88
2021/06/20 01:33:57;;;;;;;10.43;7.57;;;;;;;16.35;75.90;101041.91;5070131;28;20343;-88
2021/06/20 01:36:22;;;;;;;14.82;7.18;;;;;;;16.32;75.89;101036.19;5065460;28;20037;-88
2021/06/20 01:38:47;;;;;;;11.93;7.82;;;;;;;16.30;75.99;101046.69;5082981;28;20044;-88
2021/06/20 01:41:13;;;;;;;12.63;8.25;;;;;;;16.27;76.04;101041.78;5072221;28;20016;-87
2021/06/20 01:43:38;;;;;;;11.07;8.10;;;;;;;16.25;76.09;101036.59;5079749;28;20086;-88
2021/06/20 01:46:04;;;;;;;13.57;8.20;;;;;;;16.21;76.11;101038.34;5073179;28;20020;-88
2021/06/20 01:48:29;;;;;;;11.75;8.27;;;;;;;16.19;76.08;101041.38;5073824;28;20107;-88
2021/06/20 01:50:55;;;;;;;17.90;9.40;;;;;;;16.16;76.20;101032.94;5071210;28;20401;-86
2021/06/20 01:53:20;;;;;;;13.57;8.65;;;;;;;16.15;76.23;101036.78;5073586;28;20036;-87
2021/06/20 01:55:46;;;;;;;14.50;7.80;;;;;;;16.15;76.17;101029.38;5071754;28;20031;-89
2021/06/20 01:58:15;;;;;;;12.73;9.30;;;;;;;16.15;76.19;101020.28;5073588;28;20051;-88
2021/06/20 02:00:45;;;;;;;12.98;8.82;;;;;;;16.12;76.31;101016.22;5071274;28;20576;-88
2021/06/20 02:03:12;;;;;;;15.80;7.95;;;;;;;16.12;76.46;101015.38;5076600;28;20012;-88
2021/06/20 02:05:38;;;;;;;11.95;8.27;;;;;;;16.09;76.34;101016.81;5064101;28;20095;-88
2021/06/20 02:08:04;;;;;;;13.18;7.95;;;;;;;16.09;76.23;101016.00;5072113;28;20531;-89
2021/06/20 02:10:29;;;;;;;15.07;8.77;;;;;;;16.09;76.18;101016.00;5068595;28;20032;-87
2021/06/20 02:12:54;;;;;;;15.10;8.50;;;;;;;16.08;76.21;101004.19;5080999;28;20078;-88
2021/06/20 02:15:20;;;;;;;14.52;8.50;;;;;;;16.07;75.95;100993.50;5076037;28;20299;-87
2021/06/20 02:17:47;;;;;;;14.35;8.43;;;;;;;16.09;76.09;100999.50;5076684;28;20033;-89
2021/06/20 02:20:14;;;;;;;13.30;7.90;;;;;;;16.09;76.02;100991.25;5073926;28;20017;-89
2021/06/20 02:22:40;;;;;;;13.63;8.75;;;;;;;16.09;76.05;100994.81;5066208;28;20035;-86
2021/06/20 02:25:09;;;;;;;14.68;8.73;;;;;;;16.11;76.10;100989.81;5071929;28;20024;-88
2021/06/20 02:27:35;;;;;;;13.00;9.27;;;;;;;16.14;76.08;100985.66;5076628;28;20055;-87
2021/06/20 02:30:00;;;;;;;13.75;9.77;;;;;;;16.17;76.06;100974.03;5074552;28;20033;-89
2021/06/20 02:32:26;;;;;;;14.55;9.88;;;;;;;16.17;75.92;100974.03;5074600;28;20025;-88
2021/06/20 02:34:51;;;;;;;12.45;8.73;;;;;;;16.17;75.83;100968.53;5079059;28;20563;-89
2021/06/20 02:37:18;;;;;;;14.50;9.55;;;;;;;16.15;75.89;100966.09;5074031;28;20555;-88
2021/06/20 02:39:44;;;;;;;15.85;9.18;;;;;;;16.16;75.94;100961.41;5067628;28;20033;-88
2021/06/20 02:42:09;;;;;;;16.33;9.00;;;;;;;16.18;75.91;100964.69;5057747;28;20044;-88
2021/06/20 02:44:35;;;;;;;12.43;8.40;;;;;;;16.19;75.91;100955.28;5066070;28;20025;-88
2021/06/20 02:47:01;;;;;;;16.15;9.57;;;;;;;16.21;75.92;100966.81;5074614;28;20058;-87
2021/06/20 02:49:27;;;;;;;14.95;9.32;;;;;;;16.21;75.99;100964.06;5073135;28;20481;-87
2021/06/20 02:51:54;;;;;;;14.65;10.07;;;;;;;16.19;75.82;100960.78;5056905;28;20033;-87
2021/06/20 02:54:20;;;;;;;14.40;10.15;;;;;;;16.16;75.89;100967.72;5075251;28;20474;-88
2021/06/20 02:56:45;;;;;;;13.88;9.32;;;;;;;16.15;75.86;100957.00;5056325;28;20030;-88
2021/06/20 02:59:12;;;;;;;16.25;11.32;;;;;;;16.15;76.05;100960.59;5072439;28;20405;-89
2021/06/20 03:01:39;;;;;;;19.88;10.95;;;;;;;16.13;75.91;100962.03;5072431;28;20017;-89
2021/06/20 03:04:05;;;;;;;18.88;10.98;;;;;;;16.15;76.01;100970.75;5071920;28;20029;-88
2021/06/20 03:06:30;;;;;;;22.60;11.50;;;;;;;16.14;75.98;100963.66;5074083;28;20467;-89
2021/06/20 03:08:56;;;;;;;18.33;10.98;;;;;;;16.13;76.00;100964.78;5070124;28;20021;-87
2021/06/20 03:11:22;;;;;;;19.83;9.73;;;;;;;16.12;76.05;100966.72;5056589;28;20104;-87
2021/06/20 03:13:48;;;;;;;14.90;9.30;;;;;;;16.07;76.25;100964.06;5065650;28;20037;-88
2021/06/20 03:16:14;;;;;;;14.18;9.50;;;;;;;16.04;76.20;100952.84;5072071;28;20016;-88
2021/06/20 03:18:40;;;;;;;16.92;9.80;;;;;;;16.04;76.34;100955.59;5075760;28;20398;-86
2021/06/20 03:21:06;;;;;;;21.48;9.75;;;;;;;16.05;76.41;100954.50;5074824;28;20020;-88
2021/06/20 03:23:31;;;;;;;21.67;9.90;;;;;;;16.07;76.43;100953.06;5064639;28;20462;-88
2021/06/20 03:25:57;;;;;;;22.77;9.48;;;;;;;16.08;76.51;100964.88;5080524;28;20020;-89
2021/06/20 03:28:23;;;;;;;17.40;8.82;;;;;;;16.11;76.65;100964.25;5069024;28;20040;-89
2021/06/20 03:30:49;;;;;;;17.38;9.55;;;;;;;16.12;76.59;100965.88;5071637;28;20042;-88
2021/06/20 03:33:16;;;;;;;19.30;9.68;;;;;;;16.06;76.84;100970.69;5074843;28;20074;-88
2021/06/20 03:35:43;;;;;;;18.52;9.65;;;;;;;16.05;76.82;100957.25;5073142;28;20035;-89
2021/06/20 03:38:08;;;;;;;22.90;9.65;;;;;;;16.07;77.00;100957.72;5063929;28;20055;-88
2021/06/20 03:40:34;;;;;;;19.38;9.68;;;;;;;16.09;77.04;100950.00;5073260;28;20553;-89
2021/06/20 03:42:59;;;;;;;15.40;9.35;;;;;;;16.12;77.04;100952.97;5074585;28;20032;-88
2021/06/20 03:45:24;;;;;;;17.77;9.35;;;;;;;16.15;77.11;100959.75;5074362;28;20028;-88
2021/06/20 03:47:50;;;;;;;17.38;10.45;;;;;;;16.19;77.26;100960.78;5073259;28;20524;-86
2021/06/20 03:50:15;;;;;;;18.02;9.63;;;;;;;16.20;77.28;100956.91;5067020;28;20021;-89
2021/06/20 03:52:41;;;;;;;19.60;10.77;;;;;;;16.15;77.12;100955.09;5072606;28;20105;-89
2021/06/20 03:55:07;;;;;;;20.25;9.98;;;;;;;16.11;77.30;100958.75;5073986;28;20557;-88
2021/06/20 03:57:33;;;;;;;19.35;9.43;;;;;;;16.11;77.49;100967.03;5072192;28;20091;-89
2021/06/20 03:59:59;;;;;;;15.43;9.73;;;;;;;16.13;77.26;100970.28;5070280;28;20070;-89
2021/06/20 04:02:24;;;;;;;16.83;9.27;;;;;;;16.15;77.38;100977.09;5062236;28;20051;-86
2021/06/20 04:04:49;;;;;;;13.95;8.68;;;;;;;16.17;77.33;100974.84;5076227;28;20020;-88
2021/06/20 04:07:16;;;;;;;15.05;9.95;;;;;;;16.15;77.35;100984.53;5073193;28;20025;-90
2021/06/20 04:09:41;;;;;;;15.38;9.73;;;;;;;16.13;77.43;100984.03;5067829;28;20552;-89
2021/06/20 04:12:10;;;;;;;12.38;8.73;;;;;;;16.15;77.47;100995.53;5071446;28;20040;-87
2021/06/20 04:14:41;;;;;;;11.80;8.88;;;;;;;16.14;77.33;100986.47;5060801;28;20025;-90
2021/06/20 04:17:06;;;;;;;15.10;9.80;;;;;;;16.11;77.44;100987.06;5060893;28;20075;-88
2021/06/20 04:19:33;;;;;;;17.88;9.48;;;;;;;16.09;77.50;100981.06;5073693;28;20462;-90
2021/06/20 04:21:59;;;;;;;17.35;9.60;;;;;;;16.14;77.36;100977.41;5071385;28;20414;-89
2021/06/20 04:24:24;;;;;;;17.30;8.88;;;;;;;16.20;77.59;100967.91;5054928;28;20029;-89
2021/06/20 04:26:50;;;;;;;15.68;9.07;;;;;;;16.29;77.32;100973.53;5072745;28;20020;-88
2021/06/20 04:29:15;;;;;;;18.13;9.23;;;;;;;16.32;77.55;100979.22;5070898;28;20032;-88
2021/06/20 04:31:41;;;;;;;16.17;9.35;;;;;;;16.33;77.08;100989.09;5070868;28;20587;-89
2021/06/20 04:34:06;;;;;;;16.63;8.45;;;;;;;16.32;77.08;100983.91;5072802;28;20032;-87
2021/06/20 04:36:32;;;;;;;13.23;8.75;;;;;;;16.30;77.04;100984.22;5077221;28;20103;-90
2021/06/20 04:38:58;;;;;;;10.85;8.27;;;;;;;16.28;77.07;100975.44;5055741;28;20367;-88
2021/06/20 04:41:24;;;;;;;12.45;7.88;;;;;;;16.29;77.16;100982.59;5071388;28;20032;-87
2021/06/20 04:46:28;;;;;;;20.35;9.60;;;;;;;16.25;77.15;100978.00;5073587;28;20047;-90
2021/06/20 04:48:55;;;;;;;13.18;8.90;;;;;;;16.23;77.10;100989.31;5058174;28;20032;-88
2021/06/20 04:51:21;;;;;;;13.02;8.80;;;;;;;16.18;77.13;101000.44;5055441;28;20394;-88
2021/06/20 04:53:47;;;;;;;12.20;7.45;;;;;;;16.15;77.15;100998.28;5051966;28;20025;-86
2021/06/20 04:56:13;;;;;;;14.07;7.80;;;;;;;16.10;77.19;100990.16;5059323;28;20016;-88
2021/06/20 04:58:40;;;;;;;16.00;8.55;;;;;;;16.08;77.10;100997.88;5080591;28;20059;-88
2021/06/20 05:01:05;;;;;;;10.88;7.53;;;;;;;16.11;77.17;101002.78;5080044;28;20075;-89
2021/06/20 05:03:31;;;;;;;12.25;8.15;;;;;;;16.14;77.13;100997.47;5071648;28;20494;-89
2021/06/20 05:05:56;;;;;;;11.15;7.82;;;;;;;16.10;77.11;100984.66;5076595;28;20028;-88
2021/06/20 05:08:22;;;;;;;11.02;7.40;;;;;;;16.13;76.95;100995.03;5074118;28;20059;-88
2021/06/20 05:10:48;;;;;;;11.95;8.45;;;;;;;16.15;77.26;100981.78;5072894;28;20024;-88
2021/06/20 05:13:13;;;;;;;14.50;8.25;;;;;;;16.17;77.21;100974.84;5073966;28;20035;-88
2021/06/20 05:15:38;;;;;;;13.27;8.00;;;;;;;16.22;77.25;100979.44;5059747;28;20025;-89
2021/06/20 05:18:04;;;;;;;11.10;7.40;;;;;;;16.26;76.98;100977.72;5065854;28;20381;-89
2021/06/20 05:20:29;;;;;;;11.40;7.55;;;;;;;16.28;76.96;100977.38;5071914;28;20055;-89
2021/06/20 05:22:55;;;;;;;9.05;7.15;;;;;;;16.31;76.91;100974.00;5072828;28;20024;-89
2021/06/20 05:25:20;;;;;;;13.13;8.32;;;;;;;16.36;76.73;100965.66;5093528;28;20025;-85
2021/06/20 05:27:45;;;;;;;8.93;7.25;;;;;;;16.38;76.56;100958.72;5085105;28;20071;-79
2021/06/20 05:30:11;;;;;;;9.57;6.72;;;;;;;16.40;76.62;100962.00;5093299;28;20020;-84
2021/06/20 05:32:37;;;;;;;10.98;6.82;;;;;;;16.40;76.49;100962.00;5096141;28;20074;-81
2021/06/20 05:35:02;;;;;;;10.27;6.85;;;;;;;16.43;76.55;100955.88;5088732;28;20385;-88
2021/06/20 05:37:29;;;;;;;8.80;6.90;;;;;;;16.52;76.66;100946.88;5068665;28;20055;-89
2021/06/20 05:39:54;;;;;;;11.70;6.70;;;;;;;16.60;76.29;100943.38;5073845;28;20028;-88
2021/06/20 05:42:20;;;;;;;12.45;7.95;;;;;;;16.63;76.31;100934.50;5068927;28;20032;-89
2021/06/20 05:44:45;;;;;;;12.90;8.93;;;;;;;16.66;76.25;100942.13;5074572;28;20091;-89
2021/06/20 05:47:11;;;;;;;10.43;7.75;;;;;;;16.70;76.16;100940.41;5068826;28;20025;-89
2021/06/20 05:49:38;;;;;;;10.75;7.95;;;;;;;16.70;76.16;100937.66;5066053;28;20052;-89
2021/06/20 05:52:03;;;;;;;11.27;7.82;;;;;;;16.74;76.01;100933.13;5068124;28;20024;-90
2021/06/20 05:54:28;;;;;;;12.45;7.57;;;;;;;16.75;76.04;100940.28;5054824;28;20025;-88
2021/06/20 05:56:54;;;;;;;10.85;7.70;;;;;;;16.74;76.04;100926.81;5061813;28;20009;-90
2021/06/20 05:59:19;;;;;;;11.30;8.07;;;;;;;16.74;75.89;100926.81;5071614;28;20119;-88
2021/06/20 06:01:45;;;;;;;13.50;7.60;;;;;;;16.76;75.95;100930.88;5064730;28;20025;-88
2021/06/20 06:04:10;;;;;;;14.52;8.43;;;;;;;16.79;75.97;100921.22;5072959;28;20040;-88
2021/06/20 06:06:36;;;;;;;14.05;7.97;;;;;;;16.83;76.00;100919.47;5070953;28;20402;-89
2021/06/20 06:09:01;;;;;;;12.15;7.72;;;;;;;16.90;75.93;100924.53;5054445;28;20024;-90
2021/06/20 06:11:27;;;;;;;9.75;7.63;;;;;;;16.91;75.78;100926.97;5054663;28;20028;-90
2021/06/20 06:13:52;;;;;;;12.88;7.82;;;;;;;16.95;75.82;100925.22;5078281;28;20024;-90
2021/06/20 06:16:18;;;;;;;14.35;9.10;;;;;;;17.01;75.78;100926.72;5058801;28;20090;-89
2021/06/20 06:18:43;;;;;;;12.23;8.13;;;;;;;17.02;75.67;100922.03;5071538;28;20126;-88
2021/06/20 06:21:09;;;;;;;12.95;8.07;;;;;;;17.00;75.62;100924.31;5058390;28;20119;-89
2021/06/20 06:23:34;;;;;;;14.50;7.35;;;;;;;16.97;75.77;100930.41;5078689;28;20111;-80
2021/06/20 06:26:00;;;;;;;11.90;7.80;;;;;;;16.95;75.80;100927.19;5094904;28;20068;-84
2021/06/20 06:28:25;;;;;;;14.98;7.88;;;;;;;16.97;75.79;100934.00;5095559;28;20013;-81
2021/06/20 06:30:51;;;;;;;13.70;7.45;;;;;;;17.01;75.77;100920.41;5096256;28;20032;-87
2021/06/20 06:33:16;;;;;;;12.55;7.72;;;;;;;17.03;75.45;100926.44;5094184;28;20016;-89
2021/06/20 06:35:42;;;;;;;11.82;8.07;;;;;;;17.04;75.67;100919.78;5096246;28;20025;-80
2021/06/20 06:38:07;;;;;;;9.80;7.90;;;;;;;17.14;75.64;100922.28;5086033;28;20040;-87
2021/06/20 06:40:33;;;;;;;10.25;7.45;;;;;;;17.23;75.42;100933.34;5058576;28;20033;-88
2021/06/20 06:43:00;;;;;;;10.57;7.63;;;;;;;17.28;75.24;100925.75;5084812;28;20093;-88
2021/06/20 06:45:25;;;;;;;15.55;7.82;;;;;;;17.30;75.33;100926.25;5083259;28;20020;-89
2021/06/20 06:47:51;;;;;;;13.20;8.40;;;;;;;17.38;75.15;100930.19;5082399;28;20027;-87
2021/06/20 06:50:16;;;;;;;13.98;8.02;;;;;;;17.45;74.99;100932.50;5085606;28;20450;-89
2021/06/20 06:52:41;;;;;;;10.80;7.25;;;;;;;17.58;74.74;100925.25;5081008;28;20596;-89
2021/06/20 06:55:10;;;;;;;14.15;8.07;;;;;;;17.61;74.66;100914.41;5075155;28;20544;-89
2021/06/20 06:57:35;;;;;;;13.02;7.47;;;;;;;17.64;74.56;100916.53;5043340;28;20061;-89
2021/06/20 07:00:00;;;;;;;14.65;7.70;;;;;;;17.66;74.52;100911.50;5075084;28;20627;-89
2021/06/20 07:02:26;;;;;;;14.73;8.15;;;;;;;17.72;74.38;100910.22;5070197;28;20033;-88
2021/06/20 07:04:51;;;;;;;13.73;8.48;;;;;;;17.88;74.10;100909.84;5074765;28;20401;-87
2021/06/20 07:07:17;;;;;;;15.90;8.10;;;;;;;18.06;73.87;100900.47;5074614;28;20393;-89
2021/06/20 07:09:42;;;;;;;12.13;7.80;;;;;;;18.33;73.53;100888.34;5073997;28;20086;-90
2021/06/20 07:12:08;;;;;;;13.63;7.68;;;;;;;18.58;73.08;100885.91;5074656;28;20077;-88
2021/06/20 07:14:34;;;;;;;12.10;7.15;;;;;;;18.90;72.39;100884.56;5073705;28;20056;-89
2021/06/20 07:17:08;;;;;;;17.08;8.18;;;;;;;19.16;71.89;100875.44;5073604;28;20024;-88
2021/06/20 07:19:34;;;;;;;10.88;7.45;;;;;;;19.41;71.40;100879.25;5076531;28;20025;-87
2021/06/20 07:22:00;;;;;;;12.20;8.43;;;;;;;19.63;70.50;100873.44;5075765;28;20032;-86
2021/06/20 07:24:26;;;;;;;16.50;8.10;;;;;;;19.87;70.12;100869.28;5078200;28;20465;-86
2021/06/20 07:26:51;;;;;;;12.98;7.05;;;;;;;19.97;69.51;100877.22;5063858;28;20058;-87
2021/06/20 07:29:16;;;;;;;9.60;7.07;;;;;;;20.11;69.11;100882.50;5077460;28;20427;-86
2021/06/20 07:31:43;;;;;;;9.50;6.25;;;;;;;20.25;68.36;100871.16;5074055;28;20025;-88
2021/06/20 07:34:09;;;;;;;9.88;6.32;;;;;;;20.43;67.99;100866.28;5073174;28;20401;-87
2021/06/20 07:36:35;;;;;;;10.18;6.35;;;;;;;20.56;67.56;100865.22;5075064;28;20465;-87
2021/06/20 07:39:02;;;;;;;10.45;6.80;;;;;;;20.73;66.80;100862.28;5072874;28;20049;-86
2021/06/20 07:41:28;;;;;;;12.02;6.90;;;;;;;20.87;66.14;100855.63;5071366;28;20036;-86
2021/06/20 07:43:53;;;;;;;12.75;6.82;;;;;;;21.02;65.83;100849.44;5073850;28;20021;-86
2021/06/20 07:46:19;;;;;;;12.10;6.70;;;;;;;21.19;65.31;100849.22;5071923;28;20032;-86
2021/06/20 07:48:44;;;;;;;9.30;6.97;;;;;;;21.39;65.00;100835.63;5070064;28;20028;-87
2021/06/20 07:51:09;;;;;;;11.38;7.22;;;;;;;21.60;64.31;100825.25;5071610;28;20032;-85
2021/06/20 07:53:35;;;;;;;9.05;6.85;;;;;;;21.83;63.96;100830.31;5076894;28;20041;-87
2021/06/20 07:56:00;;;;;;;11.52;6.68;;;;;;;22.09;63.24;100825.16;5070137;28;20028;-85
2021/06/20 07:58:26;;;;;;;12.40;6.63;;;;;;;22.29;62.91;100817.03;5071113;28;20044;-86
2021/06/20 08:00:51;;;;;;;10.35;6.93;;;;;;;22.44;61.94;100821.84;5072239;28;20028;-86
2021/06/20 08:03:16;;;;;;;9.43;7.18;;;;;;;22.45;61.65;100826.22;5071014;28;20363;-86
2021/06/20 08:05:42;;;;;;;7.63;6.43;;;;;;;22.61;61.06;100813.19;5070397;28;20025;-87
2021/06/20 08:08:07;;;;;;;11.88;7.50;;;;;;;22.71;60.69;100811.06;5071299;28;20031;-85
2021/06/20 08:10:33;;;;;;;10.18;7.03;;;;;;;22.72;60.53;100809.91;5060054;28;20028;-85
2021/06/20 08:12:58;;;;;;;8.70;6.47;;;;;;;22.75;60.43;100807.25;5072156;28;20028;-86
2021/06/20 08:15:25;;;;;;;8.32;5.88;;;;;;;22.80;59.99;100798.59;5071408;28;20028;-84
2021/06/20 08:17:52;;;;;;;8.40;6.57;;;;;;;22.82;59.66;100793.50;5070164;28;20389;-85
2021/06/20 08:20:17;;;;;;;9.80;6.88;;;;;;;22.82;59.58;100795.47;5071123;28;20031;-86
2021/06/20 08:22:43;;;;;;;8.35;6.43;;;;;;;22.74;59.70;100793.69;5054699;28;20024;-84
2021/06/20 08:25:11;;;;;;;13.05;7.07;;;;;;;22.70;59.34;100793.59;5070704;28;20027;-86
2021/06/20 08:27:36;;;;;;;10.55;7.28;;;;;;;22.79;59.60;100801.75;5064698;28;20033;-84
2021/06/20 08:30:03;;;;;;;9.93;6.95;;;;;;;22.92;59.42;100811.66;5059025;28;20099;-84
2021/06/20 08:32:30;;;;;;;6.95;5.82;;;;;;;23.05;59.15;100781.78;5073064;28;20028;-83
2021/06/20 08:34:59;;;;;;;9.98;6.95;;;;;;;23.28;58.55;100784.75;5058908;28;20108;-83
2021/06/20 08:37:25;;;;;;;11.95;7.20;;;;;;;23.47;58.01;100776.47;5066776;28;20071;-82
2021/06/20 08:39:50;;;;;;;11.05;6.68;;;;;;;23.56;57.79;100775.47;5072239;28;20056;-82
2021/06/20 08:42:16;;;;;;;7.28;6.53;;;;;;;23.65;57.59;100767.72;5070920;28;20024;-83
2021/06/20 08:44:41;;;;;;;9.52;6.28;;;;;;;23.73;57.29;100755.59;5057764;28;20036;-83
2021/06/20 08:47:07;;;;;;;10.82;7.28;;;;;;;23.84;57.30;100753.84;5069851;28;20021;-82
2021/06/20 08:49:32;;;;;;;9.10;6.63;;;;;;;23.91;56.72;100742.06;5073478;28;20607;-84
2021/06/20 08:51:58;;;;;;;9.07;6.15;;;;;;;23.91;57.10;100748.44;5070846;28;20028;-84
2021/06/20 08:54:24;;;;;;;9.55;6.13;;;;;;;24.08;56.55;100749.19;5066281;28;20497;-81
2021/06/20 08:56:50;;;;;;;11.48;6.63;;;;;;;24.25;56.46;100743.16;5069020;28;20032;-84
2021/06/20 08:59:19;;;;;;;10.65;6.15;;;;;;;24.37;55.90;100740.22;5071425;28;20020;-84
2021/06/20 09:01:44;;;;;;;7.82;6.40;;;;;;;24.50;55.49;100745.63;5067954;28;20021;-82
2021/06/20 09:04:10;;;;;;;6.82;5.10;;;;;;;24.57;55.69;100740.22;5071774;28;21244;-82
2021/06/20 09:06:36;;;;;;;8.60;5.72;;;;;;;24.67;55.24;100744.38;5069835;28;20107;-80
2021/06/20 09:09:04;;;;;;;7.05;5.50;;;;;;;24.78;54.91;100729.44;5073195;28;20047;-83
2021/06/20 09:11:41;;;;;;;8.60;5.75;;;;;;;24.87;54.90;100723.59;5070787;28;20048;-84
2021/06/20 09:14:13;;;;;;;8.68;6.43;;;;;;;24.93;54.74;100721.31;5066875;28;20440;-84
2021/06/20 09:16:49;;;;;;;7.97;6.30;;;;;;;24.94;54.23;100711.78;5074419;28;20074;-85
2021/06/20 09:19:15;;;;;;;8.30;5.60;;;;;;;24.93;54.10;100721.31;5074592;28;20036;-83
2021/06/20 09:21:53;;;;;;;6.63;5.38;;;;;;;25.02;54.14;100707.91;5072921;28;20499;-84
2021/06/20 09:24:19;;;;;;;7.20;5.28;;;;;;;25.23;54.38;100716.63;5073581;28;20028;-83
2021/06/20 09:26:44;;;;;;;7.78;5.35;;;;;;;25.40;53.53;100718.09;5070747;28;20043;-84
2021/06/20 09:29:10;;;;;;;6.93;4.88;;;;;;;25.57;53.41;100707.56;5072383;28;20032;-81
2021/06/20 09:31:43;;;;;;;7.40;4.60;;;;;;;25.75;53.07;100702.19;5070074;28;20060;-84
2021/06/20 09:34:10;;;;;;;7.65;4.65;;;;;;;25.84;52.71;100705.53;5053707;28;20043;-84
2021/06/20 09:36:35;;;;;;;6.45;4.47;;;;;;;25.83;52.52;100687.13;5071642;28;20031;-83
2021/06/20 09:39:00;;;;;;;6.53;4.70;;;;;;;25.81;52.53;100687.53;5070424;28;20421;-83
2021/06/20 09:41:26;;;;;;;5.68;4.63;;;;;;;25.88;52.33;100675.66;5052883;28;20082;-82
2021/06/20 09:43:52;;;;;;;5.57;4.30;;;;;;;25.98;51.83;100676.97;5069387;28;20028;-83
2021/06/20 09:46:17;;;;;;;7.28;4.63;;;;;;;26.03;51.80;100673.84;5065294;28;20043;-83
2021/06/20 09:48:45;;;;;;;5.70;4.53;;;;;;;26.00;52.19;100664.25;5049355;28;20037;-83
2021/06/20 09:51:22;;;;;;;6.22;4.30;;;;;;;26.05;51.85;100643.50;5055070;28;20426;-83
2021/06/20 09:53:49;;;;;;;5.82;5.22;;;;;;;26.10;51.91;100624.41;5066379;28;20046;-84
2021/06/20 09:56:24;;;;;;;9.20;5.68;;;;;;;26.17;52.00;100608.94;5071246;28;20107;-82
2021/06/20 09:59:03;;;;;;;6.15;5.60;;;;;;;26.23;51.47;100587.81;5070567;28;20115;-83
2021/06/20 10:01:30;;;;;;;4.80;4.03;;;;;;;26.25;51.82;100579.84;5074057;28;20024;-83
2021/06/20 10:03:56;;;;;;;7.88;5.10;;;;;;;26.27;51.81;100569.06;5051042;28;20481;-84
2021/06/20 10:06:21;;;;;;;8.95;5.07;;;;;;;26.18;51.64;100554.63;5068518;28;20033;-84
2021/06/20 10:08:47;;;;;;;6.57;4.28;;;;;;;26.24;51.60;100541.91;5057462;28;20044;-84
2021/06/20 10:11:13;;;;;;;6.47;4.65;;;;;;;26.30;51.54;100534.75;5071239;28;20036;-84
2021/06/20 10:13:39;;;;;;;7.47;4.30;;;;;;;26.30;51.62;100523.59;5072926;28;20029;-86
2021/06/20 10:16:19;;;;;;;5.75;4.20;;;;;;;26.32;51.49;100515.63;5050602;28;20478;-84
2021/06/20 10:18:57;;;;;;;6.55;4.28;;;;;;;26.32;51.30;100504.44;5086463;28;20024;-84
2021/06/20 10:21:29;;;;;;;5.60;4.53;;;;;;;26.26;51.20;100489.22;5069697;28;20032;-83
2021/06/20 10:24:15;;;;;;;5.85;4.72;;;;;;;26.34;51.31;100490.88;5073212;28;20024;-84
2021/06/20 10:26:43;;;;;;;5.40;4.35;;;;;;;26.49;51.22;100480.59;5071724;28;20033;-83
2021/06/20 10:29:18;;;;;;;6.38;4.45;;;;;;;26.61;50.91;100493.50;5072705;28;20052;-83
2021/06/20 10:31:43;;;;;;;6.78;4.50;;;;;;;26.88;50.91;100486.44;5076827;28;20024;-82
2021/06/20 10:34:22;;;;;;;7.45;4.78;;;;;;;27.16;50.16;100487.75;5078096;28;20094;-82
2021/06/20 10:36:50;;;;;;;5.30;4.10;;;;;;;27.37;49.68;100493.44;5062676;28;20032;-82
2021/06/20 10:39:15;;;;;;;6.35;4.25;;;;;;;27.58;49.23;100500.28;5075004;28;20052;-81
2021/06/20 10:41:41;;;;;;;5.18;4.18;;;;;;;27.75;48.95;100505.13;5069242;28;20381;-81
2021/06/20 10:44:07;;;;;;;5.63;4.18;;;;;;;27.93;48.40;100515.56;5075123;28;20024;-81
2021/06/20 10:46:32;;;;;;;5.07;3.97;;;;;;;27.99;47.84;100509.16;5072311;28;20374;-81
2021/06/20 10:48:58;;;;;;;4.20;3.80;;;;;;;28.09;47.90;100510.34;5078139;28;20031;-80
2021/06/20 10:51:24;;;;;;;4.15;3.72;;;;;;;28.03;47.95;100497.97;5072923;28;20035;-82
2021/06/20 10:53:49;;;;;;;4.13;3.72;;;;;;;27.91;47.63;100506.75;5075247;28;20031;-82
2021/06/20 10:56:21;;;;;;;4.68;3.65;;;;;;;27.83;47.46;100498.34;5076814;28;20489;-81
2021/06/20 10:58:51;;;;;;;4.40;3.95;;;;;;;27.81;47.62;100497.16;5074231;28;20619;-83
2021/06/20 11:01:20;;;;;;;4.63;3.35;;;;;;;27.69;47.65;100484.28;5072832;28;20487;-81
2021/06/20 11:04:06;;;;;;;6.13;3.42;;;;;;;27.66;47.86;100496.28;5073524;28;20029;-81
2021/06/20 11:06:31;;;;;;;5.18;3.95;;;;;;;27.57;47.83;100509.88;5071897;28;20401;-82
2021/06/20 11:08:57;;;;;;;5.93;3.60;;;;;;;27.35;47.83;100511.81;5074269;28;20023;-82
2021/06/20 11:11:31;;;;;;;4.53;3.75;;;;;;;27.01;48.41;100529.66;5074274;28;20028;-84
2021/06/20 11:13:57;;;;;;;7.03;3.88;;;;;;;26.52;48.86;100530.19;5058337;28;20556;-81
2021/06/20 11:16:22;;;;;;;5.43;4.93;;;;;;;26.05;50.33;100528.97;5070336;28;20036;-81
2021/06/20 11:18:47;;;;;;;5.82;5.03;;;;;;;25.32;51.96;100515.47;5073238;28;20371;-81